createdAt,value
2022-12-08T00:02:04.342Z,37.7
2022-12-08T00:07:12.214Z,37.6
2022-12-08T00:13:03.190Z,37.6
2022-12-08T00:18:26.454Z,37.5
2022-12-08T00:24:04.263Z,37.4
2022-12-08T00:29:48.836Z,37.4
2022-12-08T00:35:27.271Z,37.3
2022-12-08T00:40:52.949Z,37.3
2022-12-08T00:46:00.056Z,37.3
2022-12-08T00:51:25.250Z,37.2
2022-12-08T00:56:46.352Z,37.1
2022-12-08T01:02:24.470Z,37.1
2022-12-08T01:08:02.562Z,37
2022-12-08T01:13:40.591Z,37
2022-12-08T01:19:18.736Z,36.9
2022-12-08T01:24:57.046Z,36.9
2022-12-08T01:30:19.452Z,36.8
2022-12-08T01:35:58.012Z,36.8
2022-12-08T01:41:20.218Z,36.7
2022-12-08T01:46:42.820Z,36.7
2022-12-08T01:52:20.587Z,36.6
2022-12-08T01:57:43.079Z,36.6
2022-12-08T02:03:21.405Z,36.9
2022-12-08T02:09:03.764Z,38
2022-12-08T02:14:41.837Z,38.8
2022-12-08T02:20:56.646Z,39.5
2022-12-08T02:26:34.070Z,40.3
2022-12-08T02:32:12.469Z,40.9
2022-12-08T02:37:49.666Z,41.7
2022-12-08T02:43:12.039Z,42.4
2022-12-08T02:48:34.749Z,43.1
2022-12-08T02:53:56.306Z,43.8
2022-12-08T02:59:34.167Z,44.4
2022-12-08T03:05:13.373Z,45.2
2022-12-08T03:10:51.026Z,45.5
2022-12-08T03:16:29.262Z,45.6
2022-12-08T03:21:35.774Z,45.8
2022-12-08T03:27:12.826Z,45.9
2022-12-08T03:32:50.639Z,46.1
2022-12-08T03:38:28.490Z,46.1
2022-12-08T03:44:06.471Z,46.2
2022-12-08T03:49:44.667Z,46.2
2022-12-08T03:55:06.868Z,46.1
2022-12-08T04:00:50.395Z,46.1
2022-12-08T04:06:28.768Z,46.1
2022-12-08T04:12:06.631Z,46.1
2022-12-08T04:17:29.243Z,46
2022-12-08T04:23:07.257Z,46
2022-12-08T04:28:33.773Z,45.9
2022-12-08T04:33:56.283Z,45.9
2022-12-08T04:39:34.408Z,45.9
2022-12-08T04:45:11.978Z,45.7
2022-12-08T04:50:56.445Z,45.6
2022-12-08T04:56:37.679Z,45.4
2022-12-08T05:02:01.094Z,45.3
2022-12-08T05:07:42.740Z,45.1
2022-12-08T05:13:27.354Z,44.9
2022-12-08T05:19:05.110Z,44.7
2022-12-08T05:24:47.133Z,44.6
2022-12-08T05:36:03.449Z,44.2
2022-12-08T05:41:26.436Z,44.1
2022-12-08T05:47:11.234Z,43.9
2022-12-08T05:52:53.692Z,43.7
2022-12-08T05:58:22.658Z,43.5
2022-12-08T06:04:02.131Z,43.3
2022-12-08T06:09:45.410Z,43.2
2022-12-08T06:15:23.640Z,43.1
2022-12-08T06:20:46.334Z,42.9
2022-12-08T06:26:28.160Z,42.8
2022-12-08T06:32:06.145Z,42.6
2022-12-08T06:37:48.882Z,42.5
2022-12-08T06:43:31.510Z,42.3
2022-12-08T06:49:09.191Z,42.1
2022-12-08T06:55:00.544Z,36.2
2022-12-08T07:01:06.319Z,32.9
2022-12-08T07:06:48.485Z,31.3
2022-12-08T07:12:28.455Z,30.4
2022-12-08T07:18:11.464Z,29.8
2022-12-08T07:23:54.174Z,29.4
2022-12-08T07:29:39.542Z,29.2
2022-12-08T07:35:20.057Z,29
2022-12-08T07:40:58.267Z,28.9
2022-12-08T07:46:38.287Z,42
2022-12-08T07:52:01.695Z,36.6
2022-12-08T07:57:39.958Z,39.8
2022-12-08T08:03:45.406Z,41.5
2022-12-08T08:09:24.110Z,42.6
2022-12-08T08:15:40.433Z,44.1
2022-12-08T08:22:00.141Z,45.3
2022-12-08T08:27:38.552Z,42.6
2022-12-08T08:33:16.931Z,41.4
2022-12-08T08:38:55.493Z,41.3
2022-12-08T08:44:37.034Z,41.4
2022-12-08T08:50:15.672Z,41.3
2022-12-08T08:55:43.668Z,40.9
2022-12-08T09:01:24.245Z,41.1
2022-12-08T09:07:02.239Z,41
2022-12-08T09:12:40.578Z,40.7
2022-12-08T09:18:21.569Z,40.3
2022-12-08T09:24:05.175Z,40
2022-12-08T09:29:49.058Z,39.8
2022-12-08T09:35:28.322Z,39.6
2022-12-08T09:40:50.846Z,40.7
2022-12-08T09:46:35.580Z,41.8
2022-12-08T09:52:20.891Z,42.3
2022-12-08T09:58:12.483Z,42.2
2022-12-08T10:03:51.246Z,42.2
2022-12-08T10:09:32.688Z,42.6
2022-12-08T10:15:11.284Z,43.8
2022-12-08T10:20:58.096Z,44.6
2022-12-08T10:26:41.792Z,45.4
2022-12-08T10:32:09.463Z,45.9
2022-12-08T10:37:47.598Z,46
2022-12-08T10:43:29.968Z,46.8
2022-12-08T10:49:10.180Z,47.7
2022-12-08T10:54:54.880Z,48.8
2022-12-08T11:00:48.311Z,49.4
2022-12-08T11:06:12.123Z,50.2
2022-12-08T11:11:35.076Z,51
2022-12-08T11:17:14.503Z,51.6
2022-12-08T11:22:52.550Z,51.5
2022-12-08T11:33:57.451Z,52.8
2022-12-08T11:45:14.887Z,51.2
2022-12-08T11:50:51.240Z,51
2022-12-08T11:56:33.434Z,51.2
2022-12-08T12:01:59.447Z,51.3
2022-12-08T12:08:48.899Z,50.7
2022-12-08T12:14:18.490Z,50.1
2022-12-08T12:19:56.424Z,49.4
2022-12-08T12:25:41.483Z,48.9
2022-12-08T12:31:22.396Z,48.7
2022-12-08T12:37:06.212Z,48.5
2022-12-08T12:42:48.109Z,48.1
2022-12-08T12:48:29.849Z,47.6
2022-12-08T12:53:52.302Z,47.1
2022-12-08T12:59:31.172Z,46.7
2022-12-08T13:05:16.722Z,46.1
2022-12-08T13:11:01.368Z,45.5
2022-12-08T13:16:51.658Z,45.1
2022-12-08T13:22:30.073Z,44.8
2022-12-08T13:28:08.482Z,44.4
2022-12-08T13:34:22.675Z,44
2022-12-08T13:40:08.082Z,43
2022-12-08T14:00:21.379Z,36.8
2022-12-08T14:07:44.022Z,36.1
2022-12-08T14:13:58.503Z,35.3
2022-12-08T14:20:10.745Z,34.9
2022-12-08T14:26:24.775Z,34.4
2022-12-08T14:31:37.423Z,34.1
2022-12-08T14:37:05.631Z,33.5
2022-12-08T14:42:34.275Z,32.9
2022-12-08T14:48:12.930Z,32.5
2022-12-08T14:53:51.252Z,32.3
2022-12-08T14:59:29.427Z,32
2022-12-08T15:05:13.804Z,31.6
2022-12-08T15:10:52.745Z,31.4
2022-12-08T15:16:30.898Z,31.1
2022-12-08T15:21:57.024Z,31
2022-12-08T15:27:19.869Z,30.4
2022-12-08T15:33:02.015Z,28.5
2022-12-08T15:38:14.406Z,27.1
2022-12-08T15:43:21.559Z,26.2
2022-12-08T15:49:14.324Z,25.6
2022-12-08T15:54:31.055Z,25.3
2022-12-08T16:04:14.178Z,24.6
2022-12-08T16:16:00.605Z,23.7
2022-12-08T16:23:44.449Z,23.2
2022-12-08T16:31:50.526Z,22.8
2022-12-08T16:37:13.659Z,22.7
2022-12-08T16:42:53.137Z,22.5
2022-12-08T16:48:36.449Z,22.4
2022-12-08T16:53:59.033Z,22.2
2022-12-08T16:59:40.716Z,22
2022-12-08T17:05:56.116Z,21.8
2022-12-08T17:11:39.279Z,21.6
2022-12-08T17:17:25.348Z,21.5
2022-12-08T17:23:02.943Z,21.4
2022-12-08T17:28:44.177Z,21.3
2022-12-08T17:34:38.154Z,21.2
2022-12-08T17:45:49.230Z,21.1
2022-12-08T17:51:31.298Z,21
2022-12-08T17:56:44.578Z,21
2022-12-08T18:02:06.918Z,20.9
2022-12-08T18:07:49.432Z,20.9
2022-12-08T18:13:14.485Z,20.9
2022-12-08T18:18:53.264Z,20.9
2022-12-08T18:24:31.563Z,20.8
2022-12-08T18:30:12.745Z,20.8
2022-12-08T18:35:51.267Z,20.8
2022-12-08T18:41:29.719Z,20.8
2022-12-08T18:46:57.155Z,20.8
2022-12-08T18:52:27.054Z,20.8
2022-12-08T18:58:38.637Z,20.8
2022-12-08T19:04:38.756Z,20.8
2022-12-08T19:10:09.108Z,20.8
2022-12-08T19:15:51.263Z,20.8
2022-12-08T19:21:30.015Z,20.7
2022-12-08T19:26:52.423Z,20.7
2022-12-08T19:32:14.990Z,20.7
2022-12-08T19:37:53.120Z,20.7
2022-12-08T19:43:16.079Z,20.7
2022-12-08T19:48:39.053Z,20.7
2022-12-08T19:53:47.888Z,20.7
2022-12-08T19:59:10.114Z,20.7
2022-12-08T20:04:33.983Z,20.7
2022-12-08T20:10:13.514Z,20.7
2022-12-08T20:15:36.592Z,21.3
2022-12-08T20:21:15.969Z,23.4
2022-12-08T20:26:56.775Z,26.3
2022-12-08T20:32:35.264Z,29
2022-12-08T20:37:58.004Z,31.1
2022-12-08T20:43:36.430Z,33
2022-12-08T20:49:19.534Z,34.6
2022-12-08T20:55:00.238Z,36
2022-12-08T21:00:46.302Z,37.3
2022-12-08T21:06:33.851Z,38.3
2022-12-08T21:12:06.383Z,39.2
2022-12-08T21:17:47.703Z,39.5
2022-12-08T21:23:13.866Z,39.7
2022-12-08T21:28:53.417Z,39.8
2022-12-08T21:34:25.467Z,39.8
2022-12-08T21:39:50.295Z,39.9
2022-12-08T21:45:16.448Z,39.9
2022-12-08T21:50:48.123Z,39.9
2022-12-08T21:56:32.657Z,39.9
2022-12-08T22:02:16.799Z,39.9
2022-12-08T22:07:45.142Z,39.9
2022-12-08T22:13:11.401Z,39.9
2022-12-08T22:18:52.892Z,39.9
2022-12-08T22:24:39.496Z,39.9
2022-12-08T22:30:18.802Z,39.8
2022-12-08T22:35:31.214Z,39.8
2022-12-08T22:41:17.242Z,39.8
2022-12-08T22:47:01.938Z,38.8
2022-12-08T22:52:41.406Z,37.5
2022-12-08T22:58:20.473Z,37.2
2022-12-08T23:04:01.393Z,37
2022-12-08T23:09:44.182Z,36.9
2022-12-08T23:15:12.623Z,36.8
2022-12-08T23:20:53.953Z,36.7
2022-12-08T23:26:32.535Z,36.6
2022-12-08T23:32:13.160Z,36.6
2022-12-08T23:37:53.255Z,36.6
2022-12-08T23:43:02.279Z,36.4
2022-12-08T23:48:43.746Z,36.4
2022-12-08T23:54:08.408Z,36.4
2022-12-08T23:59:39.170Z,36.3
